sensor_id;sensor_type;location;lat;lon;timestamp;temperature;humidity
51253;DHT22;38936;47.808;19.936;2022-10-19T00:02:03;11.60;99.90
51253;DHT22;38936;47.808;19.936;2022-10-19T00:04:29;11.70;99.90
51253;DHT22;38936;47.808;19.936;2022-10-19T00:06:54;11.70;99.90
51253;DHT22;38936;47.808;19.936;2022-10-19T00:09:20;11.70;99.90
51253;DHT22;38936;47.808;19.936;2022-10-19T00:11:48;11.80;99.90
51253;DHT22;38936;47.808;19.936;2022-10-19T00:14:18;11.80;99.90
51253;DHT22;38936;47.808;19.936;2022-10-19T00:16:45;11.80;99.90
51253;DHT22;38936;47.808;19.936;2022-10-19T00:19:16;11.90;99.90
51253;DHT22;38936;47.808;19.936;2022-10-19T00:21:42;11.90;99.90
51253;DHT22;38936;47.808;19.936;2022-10-19T00:24:08;11.90;99.90
51253;DHT22;38936;47.808;19.936;2022-10-19T00:26:34;11.90;99.90
51253;DHT22;38936;47.808;19.936;2022-10-19T00:28:59;11.90;99.90
51253;DHT22;38936;47.808;19.936;2022-10-19T00:31:25;11.90;99.90
51253;DHT22;38936;47.808;19.936;2022-10-19T00:33:51;11.90;99.90
51253;DHT22;38936;47.808;19.936;2022-10-19T00:36:37;12.10;99.90
51253;DHT22;38936;47.808;19.936;2022-10-19T00:39:06;12.10;99.90
51253;DHT22;38936;47.808;19.936;2022-10-19T00:41:33;12.10;99.90
51253;DHT22;38936;47.808;19.936;2022-10-19T00:46:38;12.20;99.90
51253;DHT22;38936;47.808;19.936;2022-10-19T00:49:08;12.30;99.90
51253;DHT22;38936;47.808;19.936;2022-10-19T00:51:36;12.30;99.90
51253;DHT22;38936;47.808;19.936;2022-10-19T00:54:04;12.50;99.90
51253;DHT22;38936;47.808;19.936;2022-10-19T00:56:31;12.50;99.90
51253;DHT22;38936;47.808;19.936;2022-10-19T00:58:57;12.50;99.90
51253;DHT22;38936;47.808;19.936;2022-10-19T01:01:23;12.60;99.90
51253;DHT22;38936;47.808;19.936;2022-10-19T01:03:51;12.50;99.90
51253;DHT22;38936;47.808;19.936;2022-10-19T01:06:17;12.50;99.90
51253;DHT22;38936;47.808;19.936;2022-10-19T01:08:44;12.40;99.90
51253;DHT22;38936;47.808;19.936;2022-10-19T01:23:10;12.30;99.90
51253;DHT22;38936;47.808;19.936;2022-10-19T01:28:37;12.30;99.90
51253;DHT22;38936;47.808;19.936;2022-10-19T01:31:27;12.30;99.90
51253;DHT22;38936;47.808;19.936;2022-10-19T01:34:24;12.40;99.90
51253;DHT22;38936;47.808;19.936;2022-10-19T01:37:15;12.50;99.90
51253;DHT22;38936;47.808;19.936;2022-10-19T01:39:56;12.60;99.90
51253;DHT22;38936;47.808;19.936;2022-10-19T01:42:34;12.60;99.90
51253;DHT22;38936;47.808;19.936;2022-10-19T01:48:08;12.60;99.90
51253;DHT22;38936;47.808;19.936;2022-10-19T01:50:49;12.70;99.90
51253;DHT22;38936;47.808;19.936;2022-10-19T01:53:17;12.70;99.90
51253;DHT22;38936;47.808;19.936;2022-10-19T01:55:48;12.70;99.90
51253;DHT22;38936;47.808;19.936;2022-10-19T01:58:18;12.70;99.90
51253;DHT22;38936;47.808;19.936;2022-10-19T02:00:46;12.80;99.90
51253;DHT22;38936;47.808;19.936;2022-10-19T02:03:13;12.80;99.90
51253;DHT22;38936;47.808;19.936;2022-10-19T02:05:40;12.80;99.90
51253;DHT22;38936;47.808;19.936;2022-10-19T02:08:14;12.80;99.90
51253;DHT22;38936;47.808;19.936;2022-10-19T02:10:42;12.80;99.90
51253;DHT22;38936;47.808;19.936;2022-10-19T02:13:10;12.80;99.90
51253;DHT22;38936;47.808;19.936;2022-10-19T02:15:39;12.90;99.90
51253;DHT22;38936;47.808;19.936;2022-10-19T02:18:06;12.90;99.90
51253;DHT22;38936;47.808;19.936;2022-10-19T02:20:34;12.90;99.90
51253;DHT22;38936;47.808;19.936;2022-10-19T02:23:05;12.90;99.90
51253;DHT22;38936;47.808;19.936;2022-10-19T02:25:31;13.00;99.90
51253;DHT22;38936;47.808;19.936;2022-10-19T02:27:57;12.90;99.90
51253;DHT22;38936;47.808;19.936;2022-10-19T02:30:24;13.00;99.90
51253;DHT22;38936;47.808;19.936;2022-10-19T02:32:49;13.00;99.90
51253;DHT22;38936;47.808;19.936;2022-10-19T02:35:15;13.00;99.90
51253;DHT22;38936;47.808;19.936;2022-10-19T02:37:41;13.10;99.90
51253;DHT22;38936;47.808;19.936;2022-10-19T02:40:07;13.00;99.90
51253;DHT22;38936;47.808;19.936;2022-10-19T02:42:59;13.00;99.90
51253;DHT22;38936;47.808;19.936;2022-10-19T02:45:36;13.00;99.90
51253;DHT22;38936;47.808;19.936;2022-10-19T02:48:07;12.90;99.90
51253;DHT22;38936;47.808;19.936;2022-10-19T02:50:35;12.90;99.90
51253;DHT22;38936;47.808;19.936;2022-10-19T02:53:01;12.90;99.90
51253;DHT22;38936;47.808;19.936;2022-10-19T02:55:28;12.90;99.90
51253;DHT22;38936;47.808;19.936;2022-10-19T02:57:54;12.80;99.90
51253;DHT22;38936;47.808;19.936;2022-10-19T03:00:20;12.80;99.90
51253;DHT22;38936;47.808;19.936;2022-10-19T03:02:45;12.80;99.90
51253;DHT22;38936;47.808;19.936;2022-10-19T03:05:12;12.80;99.90
51253;DHT22;38936;47.808;19.936;2022-10-19T03:07:38;12.70;99.90
51253;DHT22;38936;47.808;19.936;2022-10-19T03:10:03;12.80;99.90
51253;DHT22;38936;47.808;19.936;2022-10-19T03:12:29;12.70;99.90
51253;DHT22;38936;47.808;19.936;2022-10-19T03:14:54;12.70;99.90
51253;DHT22;38936;47.808;19.936;2022-10-19T03:17:20;12.70;99.90
51253;DHT22;38936;47.808;19.936;2022-10-19T03:19:46;12.70;99.90
51253;DHT22;38936;47.808;19.936;2022-10-19T03:22:12;12.70;99.90
51253;DHT22;38936;47.808;19.936;2022-10-19T03:24:38;12.70;99.90
51253;DHT22;38936;47.808;19.936;2022-10-19T03:27:03;12.70;99.90
51253;DHT22;38936;47.808;19.936;2022-10-19T03:29:29;12.70;99.90
51253;DHT22;38936;47.808;19.936;2022-10-19T03:31:54;12.70;99.90
51253;DHT22;38936;47.808;19.936;2022-10-19T03:34:20;12.80;99.90
51253;DHT22;38936;47.808;19.936;2022-10-19T03:36:45;12.70;99.90
51253;DHT22;38936;47.808;19.936;2022-10-19T03:39:13;12.80;99.90
51253;DHT22;38936;47.808;19.936;2022-10-19T03:41:39;12.80;99.90
51253;DHT22;38936;47.808;19.936;2022-10-19T03:44:06;12.90;99.90
51253;DHT22;38936;47.808;19.936;2022-10-19T03:46:32;12.90;99.90
51253;DHT22;38936;47.808;19.936;2022-10-19T03:48:58;12.90;99.90
51253;DHT22;38936;47.808;19.936;2022-10-19T03:51:24;12.90;99.90
51253;DHT22;38936;47.808;19.936;2022-10-19T03:53:55;13.00;99.90
51253;DHT22;38936;47.808;19.936;2022-10-19T03:56:23;13.00;99.90
51253;DHT22;38936;47.808;19.936;2022-10-19T03:58:50;13.00;99.90
51253;DHT22;38936;47.808;19.936;2022-10-19T04:01:24;13.00;99.90
51253;DHT22;38936;47.808;19.936;2022-10-19T04:03:58;13.00;99.90
51253;DHT22;38936;47.808;19.936;2022-10-19T04:06:27;12.90;99.90
51253;DHT22;38936;47.808;19.936;2022-10-19T04:08:53;12.90;99.90
51253;DHT22;38936;47.808;19.936;2022-10-19T04:11:22;12.80;99.90
51253;DHT22;38936;47.808;19.936;2022-10-19T04:13:49;12.90;99.90
51253;DHT22;38936;47.808;19.936;2022-10-19T04:16:16;12.80;99.90
51253;DHT22;38936;47.808;19.936;2022-10-19T04:18:42;12.80;99.90
51253;DHT22;38936;47.808;19.936;2022-10-19T04:21:16;12.80;99.90
51253;DHT22;38936;47.808;19.936;2022-10-19T04:23:43;12.80;99.90
51253;DHT22;38936;47.808;19.936;2022-10-19T04:26:08;12.70;99.90
51253;DHT22;38936;47.808;19.936;2022-10-19T04:28:34;12.80;99.90
51253;DHT22;38936;47.808;19.936;2022-10-19T04:31:03;12.80;99.90
51253;DHT22;38936;47.808;19.936;2022-10-19T04:33:30;12.80;99.90
51253;DHT22;38936;47.808;19.936;2022-10-19T04:36:00;12.70;99.90
51253;DHT22;38936;47.808;19.936;2022-10-19T04:38:27;12.80;99.90
51253;DHT22;38936;47.808;19.936;2022-10-19T04:40:53;12.80;99.90
51253;DHT22;38936;47.808;19.936;2022-10-19T04:43:19;12.80;99.90
51253;DHT22;38936;47.808;19.936;2022-10-19T04:45:44;12.70;99.90
51253;DHT22;38936;47.808;19.936;2022-10-19T04:48:10;12.70;99.90
51253;DHT22;38936;47.808;19.936;2022-10-19T04:50:35;12.70;99.90
51253;DHT22;38936;47.808;19.936;2022-10-19T04:53:01;12.60;99.90
51253;DHT22;38936;47.808;19.936;2022-10-19T04:55:26;12.60;99.90
51253;DHT22;38936;47.808;19.936;2022-10-19T04:57:52;12.50;99.90
51253;DHT22;38936;47.808;19.936;2022-10-19T05:00:17;12.50;99.90
51253;DHT22;38936;47.808;19.936;2022-10-19T05:02:43;12.30;99.90
51253;DHT22;38936;47.808;19.936;2022-10-19T05:05:10;12.30;99.90
51253;DHT22;38936;47.808;19.936;2022-10-19T05:07:35;12.20;99.90
51253;DHT22;38936;47.808;19.936;2022-10-19T05:10:01;12.10;99.90
51253;DHT22;38936;47.808;19.936;2022-10-19T05:12:26;12.00;99.90
51253;DHT22;38936;47.808;19.936;2022-10-19T05:14:52;11.90;99.90
51253;DHT22;38936;47.808;19.936;2022-10-19T05:17:17;11.80;99.90
51253;DHT22;38936;47.808;19.936;2022-10-19T05:19:43;11.70;99.90
51253;DHT22;38936;47.808;19.936;2022-10-19T05:22:09;11.70;99.90
51253;DHT22;38936;47.808;19.936;2022-10-19T05:24:34;11.60;99.90
51253;DHT22;38936;47.808;19.936;2022-10-19T05:27:00;11.60;99.90
51253;DHT22;38936;47.808;19.936;2022-10-19T05:29:25;11.50;99.90
51253;DHT22;38936;47.808;19.936;2022-10-19T05:31:52;11.50;99.90
51253;DHT22;38936;47.808;19.936;2022-10-19T05:34:18;11.60;99.90
51253;DHT22;38936;47.808;19.936;2022-10-19T05:36:43;11.60;99.90
51253;DHT22;38936;47.808;19.936;2022-10-19T05:39:13;11.60;99.90
51253;DHT22;38936;47.808;19.936;2022-10-19T05:41:39;11.70;99.90
51253;DHT22;38936;47.808;19.936;2022-10-19T05:44:09;11.80;99.90
51253;DHT22;38936;47.808;19.936;2022-10-19T05:46:35;11.80;99.90
51253;DHT22;38936;47.808;19.936;2022-10-19T05:49:01;11.90;99.90
51253;DHT22;38936;47.808;19.936;2022-10-19T05:51:27;11.90;99.90
51253;DHT22;38936;47.808;19.936;2022-10-19T05:53:54;11.90;99.90
51253;DHT22;38936;47.808;19.936;2022-10-19T05:56:25;11.90;99.90
51253;DHT22;38936;47.808;19.936;2022-10-19T05:58:52;12.00;99.90
51253;DHT22;38936;47.808;19.936;2022-10-19T06:01:19;12.10;99.90
51253;DHT22;38936;47.808;19.936;2022-10-19T06:03:45;12.10;99.90
51253;DHT22;38936;47.808;19.936;2022-10-19T06:06:11;12.10;99.90
51253;DHT22;38936;47.808;19.936;2022-10-19T06:08:37;12.20;99.90
51253;DHT22;38936;47.808;19.936;2022-10-19T06:11:11;12.20;99.90
51253;DHT22;38936;47.808;19.936;2022-10-19T06:13:38;12.30;99.90
51253;DHT22;38936;47.808;19.936;2022-10-19T06:16:05;12.40;99.90
51253;DHT22;38936;47.808;19.936;2022-10-19T06:18:31;12.30;99.90
51253;DHT22;38936;47.808;19.936;2022-10-19T06:21:02;12.30;99.90
51253;DHT22;38936;47.808;19.936;2022-10-19T06:23:28;12.30;99.90
51253;DHT22;38936;47.808;19.936;2022-10-19T06:25:54;12.20;99.90
51253;DHT22;38936;47.808;19.936;2022-10-19T06:28:19;12.20;99.90
51253;DHT22;38936;47.808;19.936;2022-10-19T06:30:45;12.10;99.90
51253;DHT22;38936;47.808;19.936;2022-10-19T06:33:10;12.10;99.90
51253;DHT22;38936;47.808;19.936;2022-10-19T06:35:36;12.10;99.90
51253;DHT22;38936;47.808;19.936;2022-10-19T06:38:02;12.20;99.90
51253;DHT22;38936;47.808;19.936;2022-10-19T06:40:28;12.80;99.90
51253;DHT22;38936;47.808;19.936;2022-10-19T06:42:54;13.60;99.90
51253;DHT22;38936;47.808;19.936;2022-10-19T06:45:20;14.40;99.90
51253;DHT22;38936;47.808;19.936;2022-10-19T06:47:46;15.10;99.90
51253;DHT22;38936;47.808;19.936;2022-10-19T06:50:11;15.50;99.90
51253;DHT22;38936;47.808;19.936;2022-10-19T06:52:37;16.10;99.90
51253;DHT22;38936;47.808;19.936;2022-10-19T06:55:05;16.50;99.90
51253;DHT22;38936;47.808;19.936;2022-10-19T06:57:31;16.80;99.90
51253;DHT22;38936;47.808;19.936;2022-10-19T06:59:56;16.90;99.90
51253;DHT22;38936;47.808;19.936;2022-10-19T07:02:22;16.90;99.90
51253;DHT22;38936;47.808;19.936;2022-10-19T07:04:48;16.80;99.90
51253;DHT22;38936;47.808;19.936;2022-10-19T07:07:13;16.60;99.90
51253;DHT22;38936;47.808;19.936;2022-10-19T07:09:39;16.50;99.90
51253;DHT22;38936;47.808;19.936;2022-10-19T07:12:05;16.30;99.90
51253;DHT22;38936;47.808;19.936;2022-10-19T07:14:30;16.20;99.90
51253;DHT22;38936;47.808;19.936;2022-10-19T07:17:03;16.00;99.90
51253;DHT22;38936;47.808;19.936;2022-10-19T07:19:29;16.00;99.90
51253;DHT22;38936;47.808;19.936;2022-10-19T07:21:55;16.10;99.90
51253;DHT22;38936;47.808;19.936;2022-10-19T07:24:21;16.40;99.90
51253;DHT22;38936;47.808;19.936;2022-10-19T07:26:47;16.80;99.90
51253;DHT22;38936;47.808;19.936;2022-10-19T07:29:12;17.10;99.90
51253;DHT22;38936;47.808;19.936;2022-10-19T07:31:38;17.40;99.90
51253;DHT22;38936;47.808;19.936;2022-10-19T07:34:04;17.50;99.90
51253;DHT22;38936;47.808;19.936;2022-10-19T07:36:32;17.70;99.90
51253;DHT22;38936;47.808;19.936;2022-10-19T07:39:00;18.00;99.90
51253;DHT22;38936;47.808;19.936;2022-10-19T07:41:26;18.40;99.90
51253;DHT22;38936;47.808;19.936;2022-10-19T07:43:52;18.60;99.90
51253;DHT22;38936;47.808;19.936;2022-10-19T07:46:25;18.80;99.90
51253;DHT22;38936;47.808;19.936;2022-10-19T07:48:53;18.90;99.20
51253;DHT22;38936;47.808;19.936;2022-10-19T07:51:19;18.90;99.20
51253;DHT22;38936;47.808;19.936;2022-10-19T07:53:46;18.80;99.20
51253;DHT22;38936;47.808;19.936;2022-10-19T07:56:20;18.80;99.50
51253;DHT22;38936;47.808;19.936;2022-10-19T07:58:46;18.80;99.40
51253;DHT22;38936;47.808;19.936;2022-10-19T08:01:16;18.70;99.60
51253;DHT22;38936;47.808;19.936;2022-10-19T08:03:42;18.50;99.80
51253;DHT22;38936;47.808;19.936;2022-10-19T08:06:10;18.40;99.90
51253;DHT22;38936;47.808;19.936;2022-10-19T08:08:37;18.30;99.90
51253;DHT22;38936;47.808;19.936;2022-10-19T08:13:39;18.10;99.90
51253;DHT22;38936;47.808;19.936;2022-10-19T08:16:05;18.30;99.90
51253;DHT22;38936;47.808;19.936;2022-10-19T08:18:43;18.80;99.80
51253;DHT22;38936;47.808;19.936;2022-10-19T08:21:08;19.10;98.80
51253;DHT22;38936;47.808;19.936;2022-10-19T08:23:34;19.20;98.60
51253;DHT22;38936;47.808;19.936;2022-10-19T08:25:59;19.30;98.60
51253;DHT22;38936;47.808;19.936;2022-10-19T08:28:25;19.30;98.10
51253;DHT22;38936;47.808;19.936;2022-10-19T08:30:51;19.20;98.20
51253;DHT22;38936;47.808;19.936;2022-10-19T08:33:22;19.10;98.40
51253;DHT22;38936;47.808;19.936;2022-10-19T08:35:47;19.10;98.40
51253;DHT22;38936;47.808;19.936;2022-10-19T08:38:13;19.10;98.60
51253;DHT22;38936;47.808;19.936;2022-10-19T08:40:39;19.00;98.60
51253;DHT22;38936;47.808;19.936;2022-10-19T08:43:29;18.90;98.60
51253;DHT22;38936;47.808;19.936;2022-10-19T08:48:30;18.90;99.40
51253;DHT22;38936;47.808;19.936;2022-10-19T08:51:01;19.50;99.20
51253;DHT22;38936;47.808;19.936;2022-10-19T08:58:46;22.40;92.80
51253;DHT22;38936;47.808;19.936;2022-10-19T09:06:57;23.10;85.60
51253;DHT22;38936;47.808;19.936;2022-10-19T09:09:24;23.50;83.00
51253;DHT22;38936;47.808;19.936;2022-10-19T09:11:55;23.40;82.90
51253;DHT22;38936;47.808;19.936;2022-10-19T09:14:41;23.20;83.10
51253;DHT22;38936;47.808;19.936;2022-10-19T09:17:13;23.60;82.30
51253;DHT22;38936;47.808;19.936;2022-10-19T09:19:40;24.50;79.70
51253;DHT22;38936;47.808;19.936;2022-10-19T09:22:21;25.10;76.50
51253;DHT22;38936;47.808;19.936;2022-10-19T09:25:04;25.60;72.30
51253;DHT22;38936;47.808;19.936;2022-10-19T09:27:39;25.80;70.90
51253;DHT22;38936;47.808;19.936;2022-10-19T09:30:25;26.10;69.60
51253;DHT22;38936;47.808;19.936;2022-10-19T09:32:59;26.10;67.30
51253;DHT22;38936;47.808;19.936;2022-10-19T09:35:31;26.10;66.40
51253;DHT22;38936;47.808;19.936;2022-10-19T09:37:58;26.00;67.20
51253;DHT22;38936;47.808;19.936;2022-10-19T09:40:27;26.10;66.50
51253;DHT22;38936;47.808;19.936;2022-10-19T09:42:54;26.20;65.20
51253;DHT22;38936;47.808;19.936;2022-10-19T09:45:39;26.20;64.90
51253;DHT22;38936;47.808;19.936;2022-10-19T09:48:49;26.50;62.60
51253;DHT22;38936;47.808;19.936;2022-10-19T09:51:16;26.30;61.80
51253;DHT22;38936;47.808;19.936;2022-10-19T09:53:53;25.60;63.50
51253;DHT22;38936;47.808;19.936;2022-10-19T09:56:22;25.00;64.10
51253;DHT22;38936;47.808;19.936;2022-10-19T09:58:56;24.40;66.40
51253;DHT22;38936;47.808;19.936;2022-10-19T10:04:35;23.20;69.30
51253;DHT22;38936;47.808;19.936;2022-10-19T10:07:02;22.80;71.50
51253;DHT22;38936;47.808;19.936;2022-10-19T10:09:28;22.50;73.60
51253;DHT22;38936;47.808;19.936;2022-10-19T10:11:57;22.20;74.50
51253;DHT22;38936;47.808;19.936;2022-10-19T10:14:36;22.00;76.10
51253;DHT22;38936;47.808;19.936;2022-10-19T10:17:10;21.90;77.90
51253;DHT22;38936;47.808;19.936;2022-10-19T10:20:01;21.80;79.60
51253;DHT22;38936;47.808;19.936;2022-10-19T10:22:34;21.80;80.90
51253;DHT22;38936;47.808;19.936;2022-10-19T10:25:02;21.50;81.00
51253;DHT22;38936;47.808;19.936;2022-10-19T10:27:37;21.30;81.90
51253;DHT22;38936;47.808;19.936;2022-10-19T10:30:08;21.10;84.80
51253;DHT22;38936;47.808;19.936;2022-10-19T10:32:51;21.00;86.60
51253;DHT22;38936;47.808;19.936;2022-10-19T10:35:28;21.00;88.50
51253;DHT22;38936;47.808;19.936;2022-10-19T10:40:33;21.00;90.30
51253;DHT22;38936;47.808;19.936;2022-10-19T10:43:11;21.10;90.80
51253;DHT22;38936;47.808;19.936;2022-10-19T10:45:43;21.20;90.70
51253;DHT22;38936;47.808;19.936;2022-10-19T10:48:28;21.20;91.00
51253;DHT22;38936;47.808;19.936;2022-10-19T10:50:56;21.20;91.50
51253;DHT22;38936;47.808;19.936;2022-10-19T10:56:04;21.50;92.00
51253;DHT22;38936;47.808;19.936;2022-10-19T10:58:53;21.50;91.70
51253;DHT22;38936;47.808;19.936;2022-10-19T11:01:22;21.60;91.30
51253;DHT22;38936;47.808;19.936;2022-10-19T11:04:08;21.60;91.30
51253;DHT22;38936;47.808;19.936;2022-10-19T11:06:49;21.60;91.00
51253;DHT22;38936;47.808;19.936;2022-10-19T11:09:30;21.40;90.20
51253;DHT22;38936;47.808;19.936;2022-10-19T11:12:02;21.20;90.40
51253;DHT22;38936;47.808;19.936;2022-10-19T11:17:02;21.20;91.10
51253;DHT22;38936;47.808;19.936;2022-10-19T11:19:40;21.20;91.50
51253;DHT22;38936;47.808;19.936;2022-10-19T11:38:11;20.50;92.30
51253;DHT22;38936;47.808;19.936;2022-10-19T11:43:30;20.30;92.10
51253;DHT22;38936;47.808;19.936;2022-10-19T11:54:15;20.50;90.30
51253;DHT22;38936;47.808;19.936;2022-10-19T11:56:48;20.70;87.00
51253;DHT22;38936;47.808;19.936;2022-10-19T11:59:27;20.70;86.40
51253;DHT22;38936;47.808;19.936;2022-10-19T12:04:50;20.80;86.20
51253;DHT22;38936;47.808;19.936;2022-10-19T12:12:56;20.90;84.60
51253;DHT22;38936;47.808;19.936;2022-10-19T12:15:30;20.90;84.00
51253;DHT22;38936;47.808;19.936;2022-10-19T12:18:07;20.90;84.00
51253;DHT22;38936;47.808;19.936;2022-10-19T12:20:38;21.00;83.90
51253;DHT22;38936;47.808;19.936;2022-10-19T12:25:42;21.20;81.60
51253;DHT22;38936;47.808;19.936;2022-10-19T12:28:21;21.20;80.90
51253;DHT22;38936;47.808;19.936;2022-10-19T12:30:49;21.20;80.10
51253;DHT22;38936;47.808;19.936;2022-10-19T12:33:21;21.10;79.60
51253;DHT22;38936;47.808;19.936;2022-10-19T12:38:57;20.90;80.60
51253;DHT22;38936;47.808;19.936;2022-10-19T12:44:32;21.00;76.90
51253;DHT22;38936;47.808;19.936;2022-10-19T12:47:09;21.00;76.40
51253;DHT22;38936;47.808;19.936;2022-10-19T12:49:42;20.90;76.10
51253;DHT22;38936;47.808;19.936;2022-10-19T12:52:08;21.00;73.60
51253;DHT22;38936;47.808;19.936;2022-10-19T12:54:36;21.00;74.20
51253;DHT22;38936;47.808;19.936;2022-10-19T12:57:36;20.90;74.40
51253;DHT22;38936;47.808;19.936;2022-10-19T13:00:21;20.90;74.30
51253;DHT22;38936;47.808;19.936;2022-10-19T13:06:02;20.80;75.10
51253;DHT22;38936;47.808;19.936;2022-10-19T13:08:41;20.80;74.70
51253;DHT22;38936;47.808;19.936;2022-10-19T13:11:09;20.80;73.90
51253;DHT22;38936;47.808;19.936;2022-10-19T13:16:57;20.70;73.00
51253;DHT22;38936;47.808;19.936;2022-10-19T13:19:23;20.70;72.50
51253;DHT22;38936;47.808;19.936;2022-10-19T13:32:32;20.30;70.90
51253;DHT22;38936;47.808;19.936;2022-10-19T13:35:31;20.20;71.20
51253;DHT22;38936;47.808;19.936;2022-10-19T13:43:21;20.00;72.10
51253;DHT22;38936;47.808;19.936;2022-10-19T14:00:20;19.60;68.60
51253;DHT22;38936;47.808;19.936;2022-10-19T14:11:03;19.20;69.10
51253;DHT22;38936;47.808;19.936;2022-10-19T14:13:30;19.10;69.30
51253;DHT22;38936;47.808;19.936;2022-10-19T14:15:58;19.00;69.50
51253;DHT22;38936;47.808;19.936;2022-10-19T14:18:33;19.00;68.60
51253;DHT22;38936;47.808;19.936;2022-10-19T14:21:06;18.90;67.40
51253;DHT22;38936;47.808;19.936;2022-10-19T14:23:34;18.80;67.60
51253;DHT22;38936;47.808;19.936;2022-10-19T14:26:15;18.80;68.00
51253;DHT22;38936;47.808;19.936;2022-10-19T14:28:42;18.80;69.60
51253;DHT22;38936;47.808;19.936;2022-10-19T14:31:10;18.70;69.30
51253;DHT22;38936;47.808;19.936;2022-10-19T14:33:45;18.60;69.60
51253;DHT22;38936;47.808;19.936;2022-10-19T14:36:18;18.60;69.20
51253;DHT22;38936;47.808;19.936;2022-10-19T14:38:44;18.50;69.50
51253;DHT22;38936;47.808;19.936;2022-10-19T14:41:40;18.50;69.60
51253;DHT22;38936;47.808;19.936;2022-10-19T14:44:38;18.40;70.40
51253;DHT22;38936;47.808;19.936;2022-10-19T14:47:21;18.40;70.70
51253;DHT22;38936;47.808;19.936;2022-10-19T14:49:48;18.30;69.90
51253;DHT22;38936;47.808;19.936;2022-10-19T14:52:43;18.20;70.40
51253;DHT22;38936;47.808;19.936;2022-10-19T14:55:15;18.10;70.80
51253;DHT22;38936;47.808;19.936;2022-10-19T14:57:42;18.00;70.20
51253;DHT22;38936;47.808;19.936;2022-10-19T15:00:17;18.00;70.80
51253;DHT22;38936;47.808;19.936;2022-10-19T15:02:55;17.90;70.90
51253;DHT22;38936;47.808;19.936;2022-10-19T15:05:31;17.80;70.60
51253;DHT22;38936;47.808;19.936;2022-10-19T15:08:09;17.70;71.10
51253;DHT22;38936;47.808;19.936;2022-10-19T15:10:41;17.70;70.90
51253;DHT22;38936;47.808;19.936;2022-10-19T15:13:22;17.60;71.20
51253;DHT22;38936;47.808;19.936;2022-10-19T15:15:53;17.50;71.10
51253;DHT22;38936;47.808;19.936;2022-10-19T15:18:22;17.40;71.30
51253;DHT22;38936;47.808;19.936;2022-10-19T15:21:00;17.30;71.90
51253;DHT22;38936;47.808;19.936;2022-10-19T15:26:47;17.10;72.20
51253;DHT22;38936;47.808;19.936;2022-10-19T15:28:48;17.10;72.50
51253;DHT22;38936;47.808;19.936;2022-10-19T15:31:25;17.00;72.90
51253;DHT22;38936;47.808;19.936;2022-10-19T15:34:01;16.80;73.50
51253;DHT22;38936;47.808;19.936;2022-10-19T15:36:29;16.70;73.80
51253;DHT22;38936;47.808;19.936;2022-10-19T15:39:05;16.70;74.50
51253;DHT22;38936;47.808;19.936;2022-10-19T15:41:35;16.50;75.00
51253;DHT22;38936;47.808;19.936;2022-10-19T15:44:02;16.40;75.80
51253;DHT22;38936;47.808;19.936;2022-10-19T15:46:34;16.30;76.60
51253;DHT22;38936;47.808;19.936;2022-10-19T15:49:50;16.20;77.10
51253;DHT22;38936;47.808;19.936;2022-10-19T15:51:48;16.00;77.60
51253;DHT22;38936;47.808;19.936;2022-10-19T15:54:16;15.90;78.20
51253;DHT22;38936;47.808;19.936;2022-10-19T15:56:43;15.90;78.80
51253;DHT22;38936;47.808;19.936;2022-10-19T15:59:18;15.70;79.70
51253;DHT22;38936;47.808;19.936;2022-10-19T16:01:45;15.60;80.30
51253;DHT22;38936;47.808;19.936;2022-10-19T16:04:13;15.50;81.10
51253;DHT22;38936;47.808;19.936;2022-10-19T16:06:40;15.40;81.50
51253;DHT22;38936;47.808;19.936;2022-10-19T16:09:12;15.30;81.90
51253;DHT22;38936;47.808;19.936;2022-10-19T16:11:38;15.30;81.50
51253;DHT22;38936;47.808;19.936;2022-10-19T16:14:04;15.20;81.90
51253;DHT22;38936;47.808;19.936;2022-10-19T16:16:30;15.20;82.20
51253;DHT22;38936;47.808;19.936;2022-10-19T16:18:57;15.20;82.80
51253;DHT22;38936;47.808;19.936;2022-10-19T16:21:30;15.10;83.30
51253;DHT22;38936;47.808;19.936;2022-10-19T16:23:56;15.00;84.00
51253;DHT22;38936;47.808;19.936;2022-10-19T16:26:22;14.90;84.60
51253;DHT22;38936;47.808;19.936;2022-10-19T16:28:49;14.80;85.60
51253;DHT22;38936;47.808;19.936;2022-10-19T16:31:15;14.70;85.40
51253;DHT22;38936;47.808;19.936;2022-10-19T16:33:41;14.60;86.10
51253;DHT22;38936;47.808;19.936;2022-10-19T16:36:07;14.50;86.80
51253;DHT22;38936;47.808;19.936;2022-10-19T16:38:33;14.40;86.90
51253;DHT22;38936;47.808;19.936;2022-10-19T16:41:01;14.40;86.60
51253;DHT22;38936;47.808;19.936;2022-10-19T16:43:27;14.40;87.00
51253;DHT22;38936;47.808;19.936;2022-10-19T16:45:53;14.40;87.20
51253;DHT22;38936;47.808;19.936;2022-10-19T16:48:18;14.30;87.10
51253;DHT22;38936;47.808;19.936;2022-10-19T16:50:44;14.30;87.30
51253;DHT22;38936;47.808;19.936;2022-10-19T16:53:09;14.30;86.90
51253;DHT22;38936;47.808;19.936;2022-10-19T16:55:36;14.30;86.00
51253;DHT22;38936;47.808;19.936;2022-10-19T16:58:02;14.30;85.90
51253;DHT22;38936;47.808;19.936;2022-10-19T17:00:27;14.40;84.30
51253;DHT22;38936;47.808;19.936;2022-10-19T17:02:53;14.40;84.10
51253;DHT22;38936;47.808;19.936;2022-10-19T17:05:19;14.40;84.10
51253;DHT22;38936;47.808;19.936;2022-10-19T17:07:44;14.50;84.30
51253;DHT22;38936;47.808;19.936;2022-10-19T17:10:10;14.50;83.80
51253;DHT22;38936;47.808;19.936;2022-10-19T17:12:37;14.40;83.30
51253;DHT22;38936;47.808;19.936;2022-10-19T17:15:03;14.50;83.70
51253;DHT22;38936;47.808;19.936;2022-10-19T17:17:29;14.40;83.40
51253;DHT22;38936;47.808;19.936;2022-10-19T17:19:55;14.40;83.50
51253;DHT22;38936;47.808;19.936;2022-10-19T17:22:20;14.30;83.80
51253;DHT22;38936;47.808;19.936;2022-10-19T17:24:46;14.30;84.10
51253;DHT22;38936;47.808;19.936;2022-10-19T17:27:11;14.20;84.40
51253;DHT22;38936;47.808;19.936;2022-10-19T17:29:37;14.10;84.70
51253;DHT22;38936;47.808;19.936;2022-10-19T17:32:02;14.10;84.00
51253;DHT22;38936;47.808;19.936;2022-10-19T17:34:28;14.00;84.10
51253;DHT22;38936;47.808;19.936;2022-10-19T17:36:53;14.10;83.90
51253;DHT22;38936;47.808;19.936;2022-10-19T17:39:20;14.00;84.70
51253;DHT22;38936;47.808;19.936;2022-10-19T17:41:47;14.00;84.30
51253;DHT22;38936;47.808;19.936;2022-10-19T17:44:14;13.90;84.30
51253;DHT22;38936;47.808;19.936;2022-10-19T17:46:40;13.90;83.90
51253;DHT22;38936;47.808;19.936;2022-10-19T17:49:05;13.90;83.40
51253;DHT22;38936;47.808;19.936;2022-10-19T17:51:33;13.90;83.30